Bettles Field, AK

6:49 AM AKDT on May 28, 2017 (GMT -0800)
Bettles | | Change Station

Elev 643 ft 66.92 °N, 151.53 °W | Updated 56 minutes ago

Mostly Cloudy
Mostly Cloudy
39 °F
Feels Like 36 °F
N
5
Wind Variable Wind from North

Today
High -- | Low -- °F
--% Chance of Precip.
Yesterday
High -- | Low -- °F
Precip. -- in
Pressure 30.09 in
Visibility 10.0 miles
Clouds Few 5500 ft
Few 7500 ft
Mostly Cloudy 22000 ft
Windchill 36 °F
Dew Point 32 °F
Humidity 76%
Rainfall 0.00 in
Snow Depth Not available.
3:03 AM 1:09 AM
Waxing Crescent, 11% visible
METAR PABT 281353Z 01004KT 10SM FEW055 FEW075 BKN220 04/00 A3005 RMK AO2 SLP187 T00390000 $
Pressure 30.09 in
Visibility 10.0 miles
Clouds Few 5500 ft
Few 7500 ft
Mostly Cloudy 22000 ft
Windchill 36 °F
Dew Point 32 °F
Humidity 76%
Rainfall 0.00 in
Snow Depth Not available.
3:03 AM 1:09 AM
Waxing Crescent, 11% visible
METAR PABT 281353Z 01004KT 10SM FEW055 FEW075 BKN220 04/00 A3005 RMK AO2 SLP187 T00390000 $

Get Severe Weather Alerts

Thanks for signing up!

Be on the lookout for a verification email in your inbox.

You'll start receiving the daily forecast at 6 AM.

×

10-Day Weather Forecast

Almanac

Astronomy

May. 28, 2017 Rise Set
Actual Time
Civil Twilight
Nautical Twilight
Astronomical Twilight
Moon
Length of Visible Light
Length of Day
Tomorrow will be .
, % of the Moon is Illuminated

Today's Extremes

State Highs State Lows

Community

WunderPhotos

Category 6

Welcome to Category 6. This is the collective home for Weather Underground's featured writeups by Dr. Jeff Masters (right), Bob Henson (left), Chris Burt, and other regular contributors.

Nearby

Air Quality

  Air Quality AQ Index Pollutant
Not available.

Snow Depth

Station Depth Elevation

Earthquake Activity

City Distance Mag. Time & Date
Minimum magnitude displayed is 2.5.

Coastal Water Temperatures

Place Temperature

Stations

Nearby Weather Stations

Station Location Temp. Windchill Dew Point Humidity Wind Precip. Elev Updated Type
                   

Watches & Warnings

There are currently no watches in effect.